createdAt,value
2023-04-07T00:00:05.989Z,100166.72
2023-04-07T00:05:07.594Z,100174.44
2023-04-07T00:10:09.490Z,100163.81
2023-04-07T00:15:11.016Z,100160.44
2023-04-07T00:20:12.634Z,100138.34
2023-04-07T00:25:14.205Z,100151.00
2023-04-07T00:30:15.708Z,100148.34
2023-04-07T00:35:17.905Z,100131.06
2023-04-07T00:40:19.339Z,100140.16
2023-04-07T00:45:20.730Z,100133.50
2023-04-07T00:50:22.111Z,100117.69
2023-04-07T00:55:24.405Z,100113.31
2023-04-07T01:00:27.971Z,100119.97
2023-04-07T01:05:42.583Z,100103.31
2023-04-07T01:11:00.797Z,100098.59
2023-04-07T01:16:06.086Z,100098.25
2023-04-07T01:21:13.975Z,100086.75
2023-04-07T01:26:32.143Z,100090.50
2023-04-07T01:31:34.963Z,100084.09
2023-04-07T01:36:36.829Z,100076.59
2023-04-07T01:41:39.978Z,100075.41
2023-04-07T01:46:41.336Z,100067.56
2023-04-07T01:51:43.378Z,100066.97
2023-04-07T01:56:45.652Z,100060.06
2023-04-07T02:01:48.327Z,100055.72
2023-04-07T02:06:54.791Z,100061.66
2023-04-07T02:11:59.867Z,100060.78
2023-04-07T02:17:02.218Z,100052.47
2023-04-07T02:22:05.470Z,100048.81
2023-04-07T02:27:06.864Z,100052.94
2023-04-07T02:32:08.403Z,100034.59
2023-04-07T02:37:09.869Z,100039.06
2023-04-07T02:42:11.262Z,100040.03
2023-04-07T02:47:12.609Z,100033.88
2023-04-07T02:52:14.013Z,100037.63
2023-04-07T02:57:15.561Z,100046.91
2023-04-07T03:02:17.245Z,100041.59
2023-04-07T03:07:19.006Z,100035.34
2023-04-07T03:12:20.668Z,100025.03
2023-04-07T03:17:22.068Z,100025.03
2023-04-07T03:22:23.379Z,100028.31
2023-04-07T03:27:24.680Z,100024.56
2023-04-07T03:32:26.152Z,100014.78
2023-04-07T03:37:27.551Z,100014.78
2023-04-07T03:42:28.914Z,100015.91
2023-04-07T03:47:30.553Z,100009.97
2023-04-07T03:52:32.021Z,100008.88
2023-04-07T03:57:33.488Z,100016.13
2023-04-07T04:02:34.960Z,100019.75
2023-04-07T04:07:36.414Z,100010.19
2023-04-07T04:12:37.806Z,99997.88
2023-04-07T04:17:39.194Z,100010.44
2023-04-07T04:22:40.554Z,100010.69
2023-04-07T04:27:41.979Z,100014.56
2023-04-07T04:32:43.644Z,100011.06
2023-04-07T04:37:45.299Z,100015.50
2023-04-07T04:42:46.723Z,100021.31
2023-04-07T04:47:48.140Z,100007.53
2023-04-07T04:52:49.609Z,100015.75
2023-04-07T04:57:51.023Z,100021.56
2023-04-07T05:02:52.445Z,100021.06
2023-04-07T05:07:54.039Z,100027.31
2023-04-07T05:12:56.118Z,100032.75
2023-04-07T05:17:57.761Z,100032.88
2023-04-07T05:22:59.192Z,100024.06
2023-04-07T05:28:00.590Z,100021.53
2023-04-07T05:33:01.978Z,100026.63
2023-04-07T05:38:03.489Z,100009.22
2023-04-07T05:43:04.875Z,100020.22
2023-04-07T05:48:06.617Z,100019.59
2023-04-07T05:53:07.949Z,100027.56
2023-04-07T05:58:09.340Z,100022.13
2023-04-07T06:03:10.973Z,100022.25
2023-04-07T06:08:12.459Z,100011.16
2023-04-07T06:13:13.900Z,100024.78
2023-04-07T06:18:15.588Z,100019.72
2023-04-07T06:23:16.962Z,100024.06
2023-04-07T06:28:18.647Z,100030.22
2023-04-07T06:33:23.868Z,100024.06
2023-04-07T06:38:25.644Z,100028.31
2023-04-07T06:43:27.058Z,100021.44
2023-04-07T06:48:28.450Z,100031.69
2023-04-07T06:53:29.893Z,100029.03
2023-04-07T06:58:31.389Z,100035.06
2023-04-07T07:03:33.566Z,100047.63
2023-04-07T07:08:35.387Z,100040.47
2023-04-07T07:13:37.352Z,100034.34
2023-04-07T07:18:38.777Z,100041.72
2023-04-07T07:23:40.302Z,100039.91
2023-04-07T07:28:41.783Z,100045.94
2023-04-07T07:33:45.932Z,100041.59
2023-04-07T07:38:50.557Z,100047.88
2023-04-07T07:43:52.017Z,100060.56
2023-04-07T07:48:53.786Z,100059.72
2023-04-07T07:53:55.571Z,100056.34
2023-04-07T07:58:58.274Z,100055.75
2023-04-07T08:03:59.939Z,100063.47
2023-04-07T08:09:01.344Z,100076.16
2023-04-07T08:14:02.750Z,100070.00
2023-04-07T08:19:04.068Z,100078.09
2023-04-07T08:24:06.026Z,100081.81
2023-04-07T08:29:07.334Z,100059.97
2023-04-07T08:34:08.649Z,100087.97
2023-04-07T08:39:10.041Z,100089.41
2023-04-07T08:44:11.476Z,100090.63
2023-04-07T08:49:15.454Z,100091.50
2023-04-07T08:54:22.072Z,100096.31
2023-04-07T08:59:28.433Z,100094.25
2023-04-07T09:04:29.869Z,100101.00
2023-04-07T09:09:31.170Z,100097.41
2023-04-07T09:14:32.775Z,100105.72
2023-04-07T09:19:34.284Z,100100.41
2023-04-07T09:24:35.605Z,100108.50
2023-04-07T09:29:37.657Z,100108.72
2023-04-07T09:34:41.545Z,100102.19
2023-04-07T09:39:51.903Z,100109.16
2023-04-07T09:44:53.317Z,100111.56
2023-04-07T09:49:56.250Z,100100.97
2023-04-07T09:54:58.022Z,100112.44
2023-04-07T09:59:59.455Z,100111.69
2023-04-07T10:05:01.174Z,100113.41
2023-04-07T10:10:07.949Z,100117.75
2023-04-07T10:15:13.552Z,100110.88
2023-04-07T10:20:17.474Z,100115.22
2023-04-07T10:25:22.710Z,100112.06
2023-04-07T10:30:27.950Z,100123.66
2023-04-07T10:36:08.527Z,100129.84
2023-04-07T10:41:36.359Z,100127.66
2023-04-07T10:46:51.805Z,100139.84
2023-04-07T10:52:11.255Z,100141.19
2023-04-07T10:57:14.593Z,100145.41
2023-04-07T11:02:25.385Z,100147.81
2023-04-07T11:07:47.207Z,100154.81
2023-04-07T11:12:59.689Z,100151.69
2023-04-07T11:18:10.514Z,100161.13
2023-04-07T11:23:12.173Z,100150.22
2023-04-07T11:28:14.451Z,100163.03
2023-04-07T11:33:20.521Z,100159.22
2023-04-07T11:38:23.904Z,100153.13
2023-04-07T11:43:27.433Z,100162.53
2023-04-07T11:48:30.478Z,100158.03
2023-04-07T11:53:39.934Z,100167.59
2023-04-07T11:58:47.755Z,100174.50
2023-04-07T12:04:01.872Z,100178.50
2023-04-07T12:09:05.795Z,100180.44
2023-04-07T12:14:08.825Z,100174.50
2023-04-07T12:19:10.299Z,100181.38
2023-04-07T12:24:11.826Z,100182.22
2023-04-07T12:29:13.676Z,100194.38
2023-04-07T12:34:14.990Z,100186.88
2023-04-07T12:39:16.854Z,100189.94
2023-04-07T12:44:18.442Z,100193.59
2023-04-07T12:49:19.780Z,100191.19
2023-04-07T12:54:21.283Z,100199.97
2023-04-07T12:59:24.548Z,100198.16
2023-04-07T13:04:26.962Z,100200.19
2023-04-07T13:09:28.511Z,100200.66
2023-04-07T13:14:30.302Z,100199.78
2023-04-07T13:19:31.802Z,100198.69
2023-04-07T13:24:33.358Z,100195.25
2023-04-07T13:29:34.729Z,100194.28
2023-04-07T13:34:37.492Z,100196.72
2023-04-07T13:39:38.826Z,100193.06
2023-04-07T13:44:40.854Z,100199.41
2023-04-07T13:49:42.211Z,100200.94
2023-04-07T13:54:44.065Z,100198.69
2023-04-07T13:59:45.912Z,100189.13
2023-04-07T14:04:47.306Z,100197.97
2023-04-07T14:09:49.068Z,100193.50
2023-04-07T14:14:52.247Z,100207.97
2023-04-07T14:19:54.311Z,100203.88
2023-04-07T14:24:56.153Z,100208.78
2023-04-07T14:29:59.398Z,100202.50
2023-04-07T14:35:01.106Z,100195.97
2023-04-07T14:40:03.603Z,100198.44
2023-04-07T14:45:05.390Z,100193.19
2023-04-07T14:50:07.329Z,100198.16
2023-04-07T14:55:08.857Z,100195.50
2023-04-07T15:00:10.730Z,100191.84
2023-04-07T15:05:12.218Z,100198.81
2023-04-07T15:10:13.591Z,100205.13
2023-04-07T15:15:15.744Z,100213.81
2023-04-07T15:20:17.147Z,100211.63
2023-04-07T15:25:18.570Z,100215.13
2023-04-07T15:30:20.164Z,100212.47
2023-04-07T15:35:21.472Z,100210.50
2023-04-07T15:40:23.039Z,100211.09
2023-04-07T15:45:24.423Z,100211.09
2023-04-07T15:50:27.163Z,100220.22
2023-04-07T15:55:28.546Z,100223.44
2023-04-07T16:00:33.371Z,100228.50
2023-04-07T16:05:35.243Z,100231.63
2023-04-07T16:10:36.640Z,100240.06
2023-04-07T16:15:41.223Z,100235.66
2023-04-07T16:20:43.251Z,100246.75
2023-04-07T16:25:44.675Z,100244.34
2023-04-07T16:30:46.051Z,100247.03
2023-04-07T16:35:47.447Z,100252.03
2023-04-07T16:41:02.850Z,100257.88
2023-04-07T16:46:06.083Z,100263.19
2023-04-07T16:51:07.649Z,100271.28
2023-04-07T16:56:19.567Z,100274.22
2023-04-07T17:01:21.262Z,100275.03
2023-04-07T17:06:23.310Z,100270.25
2023-04-07T17:11:24.621Z,100277.69
2023-04-07T17:16:26.175Z,100288.63
2023-04-07T17:21:27.722Z,100289.63
2023-04-07T17:26:29.180Z,100288.72
2023-04-07T17:31:31.840Z,100290.47
2023-04-07T17:36:33.746Z,100294.88
2023-04-07T17:41:35.388Z,100301.69
2023-04-07T17:46:36.788Z,100314.97
2023-04-07T17:51:38.173Z,100312.19
2023-04-07T17:56:39.865Z,100332.31
2023-04-07T18:01:41.274Z,100331.63
2023-04-07T18:06:42.724Z,100349.06
2023-04-07T18:11:44.108Z,100341.81
2023-04-07T18:16:45.515Z,100346.00
2023-04-07T18:21:47.137Z,100347.72
2023-04-07T18:26:48.497Z,100346.88
2023-04-07T18:31:49.975Z,100358.38
2023-04-07T18:36:51.704Z,100370.13
2023-04-07T18:41:53.139Z,100384.19
2023-04-07T18:46:54.578Z,100389.75
2023-04-07T18:51:55.985Z,100388.66
2023-04-07T18:56:57.919Z,100394.25
2023-04-07T19:01:59.409Z,100403.31
2023-04-07T19:07:00.886Z,100400.41
2023-04-07T19:12:02.383Z,100408.50
2023-04-07T19:17:03.807Z,100412.41
2023-04-07T19:22:05.151Z,100413.38
2023-04-07T19:27:07.158Z,100417.84
2023-04-07T19:32:08.899Z,100415.91
2023-04-07T19:37:10.279Z,100425.13
2023-04-07T19:42:11.744Z,100415.78
2023-04-07T19:47:13.247Z,100426.78
2023-04-07T19:52:14.591Z,100426.78
2023-04-07T19:57:16.393Z,100440.34
2023-04-07T20:02:18.017Z,100436.72
2023-04-07T20:07:19.481Z,100435.75
2023-04-07T20:12:21.025Z,100439.97
2023-04-07T20:17:23.499Z,100448.69
2023-04-07T20:22:24.882Z,100442.28
2023-04-07T20:27:27.101Z,100458.38
2023-04-07T20:32:28.744Z,100464.53
2023-04-07T20:37:30.202Z,100454.88
2023-04-07T20:42:31.653Z,100471.56
2023-04-07T20:47:35.825Z,100474.13
2023-04-07T20:52:40.049Z,100459.09
2023-04-07T20:57:41.817Z,100481.00
2023-04-07T21:02:43.336Z,100469.84
2023-04-07T21:07:44.818Z,100473.47
2023-04-07T21:12:46.237Z,100472.84
2023-04-07T21:17:47.675Z,100467.59
2023-04-07T21:22:49.010Z,100479.66
2023-04-07T21:27:50.613Z,100479.66
2023-04-07T21:32:52.991Z,100476.41
2023-04-07T21:37:55.081Z,100466.94
2023-04-07T21:42:57.526Z,100477.47
2023-04-07T21:47:59.020Z,100486.16
2023-04-07T21:53:00.553Z,100488.09
2023-04-07T21:58:01.852Z,100489.63
2023-04-07T22:03:03.683Z,100492.38
2023-04-07T22:08:05.277Z,100495.28
2023-04-07T22:13:06.601Z,100493.56
2023-04-07T22:18:07.925Z,100493.09
2023-04-07T22:23:09.287Z,100498.72
2023-04-07T22:28:10.870Z,100500.25
2023-04-07T22:33:12.220Z,100500.03
2023-04-07T22:38:13.653Z,100512.25
2023-04-07T22:43:15.427Z,100512.13
2023-04-07T22:48:17.477Z,100519.13
2023-04-07T22:53:18.776Z,100512.84
2023-04-07T22:58:20.210Z,100512.84
2023-04-07T23:03:21.719Z,100515.97
2023-04-07T23:08:23.196Z,100513.44
2023-04-07T23:13:24.614Z,100533.19
2023-04-07T23:18:25.934Z,100522.59
2023-04-07T23:23:27.602Z,100526.53
2023-04-07T23:28:29.012Z,100536.66
2023-04-07T23:33:31.644Z,100532.16
2023-04-07T23:38:33.107Z,100537.38
2023-04-07T23:43:35.122Z,100536.19
2023-04-07T23:48:36.695Z,100536.19
2023-04-07T23:53:38.131Z,100532.44
2023-04-07T23:58:39.582Z,100534.72
